Earlville, Pennsylvania
Current Conditions -  °F | °C
As of 1:54 PM on Friday 24 Oct 2014 (Local Time) from KPTW Reporting Station
Clear Clear  
Wind Chill: 66°   Ceiling: Unl
Heat Index: 66°   Visibility: 10mi
Dew Point: 44°   Wind: 12mph
Humidity: 45%   Direction: 290°WNW
Pressure: 29.84"   Gusts: 21mph
Location:  40.32°N, 75.74°W
Report Text: KPTW 241754Z AUTO 29010G18KT 10SM CLR 19/07 A2984 RMK AO2 SLP102 T01890067 10194 20122 58015
Loading
Personal Weather Stations






























Interactive Weather Map
Tropical Storm Tracking
New forecast layout! Learn more

10-Day Weather Forecast

Advertisements
Track Severe Weather on mobile